Time;durP1;ratioP1;P1;durP2;ratioP2;P2;SDS_P1;SDS_P2;PMS_P1;PMS_P2;Temp;Humidity;BMP_temperature;BMP_pressure;BME280_temperature;BME280_humidity;BME280_pressure;Samples;Min_cycle;Max_cycle;Signal;HPM_P1;HPM_P2
2022/10/30 00:00:56;;;;;;;15.70;7.60;;;15.70;80.90;;;;;;5053312;28;20049;-49
2022/10/30 00:03:22;;;;;;;17.98;6.95;;;15.70;81.10;;;;;;5053085;28;20021;-50
2022/10/30 00:05:49;;;;;;;10.40;6.20;;;15.70;81.20;;;;;;5052793;28;20401;-51
2022/10/30 00:08:16;;;;;;;18.00;7.55;;;15.70;81.20;;;;;;5052834;28;20063;-48
2022/10/30 00:10:43;;;;;;;23.20;8.10;;;15.60;81.40;;;;;;5053080;28;20021;-50
2022/10/30 00:13:09;;;;;;;15.05;6.72;;;15.60;81.50;;;;;;5052895;28;20021;-49
2022/10/30 00:15:35;;;;;;;14.48;6.30;;;15.60;81.60;;;;;;5052716;28;20029;-48
2022/10/30 00:18:00;;;;;;;17.38;7.40;;;15.50;81.60;;;;;;5052739;28;20027;-48
2022/10/30 00:20:26;;;;;;;14.63;7.40;;;15.60;81.90;;;;;;5052896;28;20499;-49
2022/10/30 00:22:52;;;;;;;17.25;7.40;;;15.50;81.80;;;;;;5052727;28;20032;-48
2022/10/30 00:25:17;;;;;;;17.85;7.80;;;15.60;81.70;;;;;;5052760;28;20049;-49
2022/10/30 00:27:43;;;;;;;14.32;7.30;;;15.60;81.60;;;;;;5053147;28;20017;-50
2022/10/30 00:30:09;;;;;;;15.30;7.53;;;15.50;81.50;;;;;;5052656;28;20028;-50
2022/10/30 00:32:35;;;;;;;20.80;7.38;;;15.60;81.50;;;;;;5052602;28;20029;-49
2022/10/30 00:35:01;;;;;;;15.25;6.38;;;15.60;81.10;;;;;;5052738;28;20151;-49
2022/10/30 00:37:26;;;;;;;14.25;7.25;;;15.60;81.20;;;;;;5052697;28;20068;-50
2022/10/30 00:39:52;;;;;;;16.02;6.32;;;15.70;81.10;;;;;;5052677;28;20418;-49
2022/10/30 00:42:17;;;;;;;18.95;7.00;;;15.70;80.10;;;;;;5052652;28;20108;-48
2022/10/30 00:44:43;;;;;;;17.05;8.25;;;15.80;79.80;;;;;;5052549;28;20025;-49
2022/10/30 00:47:29;;;;;;;15.57;5.57;;;15.80;80.30;;;;;;5055073;28;20017;-52
2022/10/30 00:49:59;;;;;;;16.95;9.65;;;15.80;79.70;;;;;;5056424;28;20421;-49
2022/10/30 00:52:30;;;;;;;16.40;7.45;;;15.80;80.40;;;;;;5056394;28;20495;-47
2022/10/30 00:54:56;;;;;;;;;;;15.80;80.20;;;;;;5055763;28;20021;-47
2022/10/30 00:57:22;;;;;;;19.08;8.40;;;15.80;79.30;;;;;;5056407;28;19992;-51
2022/10/30 00:59:48;;;;;;;17.38;8.30;;;15.80;79.80;;;;;;5056354;28;20061;-47
2022/10/30 01:02:15;;;;;;;16.40;7.45;;;15.80;80.10;;;;;;5056607;28;20032;-49
2022/10/30 01:04:42;;;;;;;16.65;7.35;;;15.70;79.90;;;;;;5056306;28;20059;-49
2022/10/30 01:07:11;;;;;;;19.55;8.30;;;15.70;80.00;;;;;;5057181;28;20481;-49
2022/10/30 01:09:38;;;;;;;13.07;6.80;;;15.70;80.20;;;;;;5057253;28;20049;-48
2022/10/30 01:12:05;;;;;;;19.85;7.95;;;15.60;80.20;;;;;;5057061;28;20071;-50
2022/10/30 01:14:33;;;;;;;24.33;7.63;;;15.60;80.50;;;;;;5056625;28;20036;-49
2022/10/30 01:17:28;;;;;;;18.35;7.45;;;15.50;80.60;;;;;;5056316;28;20024;-49
2022/10/30 01:19:56;;;;;;;16.33;6.35;;;15.50;80.70;;;;;;5056843;28;20037;-49
2022/10/30 01:22:39;;;;;;;16.25;7.47;;;15.40;80.90;;;;;;5057216;28;20087;-49
2022/10/30 01:25:22;;;;;;;18.58;7.63;;;15.30;81.10;;;;;;5056207;28;20045;-49
2022/10/30 01:28:16;;;;;;;18.35;6.53;;;15.30;81.10;;;;;;5055885;28;20028;-49
2022/10/30 01:30:50;;;;;;;14.40;7.65;;;15.30;81.30;;;;;;5054732;28;20040;-51
2022/10/30 01:33:40;;;;;;;10.50;5.28;;;15.30;81.30;;;;;;5055765;28;20092;-49
2022/10/30 01:36:32;;;;;;;13.30;5.57;;;15.30;81.20;;;;;;5055804;28;20025;-48
2022/10/30 01:39:08;;;;;;;13.43;5.68;;;15.30;81.20;;;;;;5056198;28;20066;-49
2022/10/30 01:41:34;;;;;;;12.30;5.72;;;15.30;80.20;;;;;;5055890;28;20037;-48
2022/10/30 01:44:07;;;;;;;14.85;7.95;;;15.30;80.30;;;;;;5054247;28;20029;-48
2022/10/30 01:46:41;;;;;;;18.92;7.60;;;15.30;80.40;;;;;;5055851;28;20155;-48
2022/10/30 01:49:18;;;;;;;16.05;8.25;;;15.30;80.80;;;;;;5056712;28;20056;-50
2022/10/30 01:52:28;;;;;;;17.58;7.13;;;15.20;80.90;;;;;;5055809;28;20021;-48
2022/10/30 01:55:08;;;;;;;12.07;6.70;;;15.10;81.10;;;;;;5056285;28;20029;-50
2022/10/30 01:57:47;;;;;;;17.67;7.88;;;15.10;81.40;;;;;;5053660;28;20115;-49
2022/10/30 02:00:15;;;;;;;19.70;7.78;;;15.10;81.70;;;;;;5055933;28;20017;-49
2022/10/30 02:02:41;;;;;;;16.92;6.82;;;15.20;81.60;;;;;;5055570;28;20398;-50
2022/10/30 02:05:10;;;;;;;16.48;7.22;;;15.00;81.80;;;;;;5056036;28;20128;-48
2022/10/30 02:07:36;;;;;;;13.32;7.30;;;14.90;82.20;;;;;;5055054;28;20067;-47
2022/10/30 02:10:03;;;;;;;9.20;7.15;;;14.80;82.50;;;;;;5055415;28;20373;-51
2022/10/30 02:12:30;;;;;;;12.65;6.63;;;14.80;82.80;;;;;;5055444;28;20021;-48
2022/10/30 02:14:59;;;;;;;15.75;6.63;;;14.80;82.90;;;;;;5055079;28;20384;-52
2022/10/30 02:17:26;;;;;;;19.73;6.75;;;14.70;83.10;;;;;;5055013;28;20029;-52
2022/10/30 02:19:51;;;;;;;11.27;6.95;;;14.70;83.30;;;;;;5054908;28;20055;-48
2022/10/30 02:22:17;;;;;;;13.65;5.55;;;14.60;83.60;;;;;;5054960;28;20060;-52
2022/10/30 02:24:43;;;;;;;12.38;5.65;;;14.70;83.60;;;;;;5054727;28;20397;-53
2022/10/30 02:27:09;;;;;;;10.85;5.93;;;14.60;83.50;;;;;;5054923;28;20037;-52
2022/10/30 02:32:56;;;;;;;18.17;7.65;;;14.50;83.70;;;;;;5055033;28;20020;-53
2022/10/30 02:35:22;;;;;;;11.85;7.05;;;14.50;83.80;;;;;;5055270;28;20025;-53
2022/10/30 02:37:50;;;;;;;11.30;6.97;;;14.40;83.90;;;;;;5054835;28;20527;-52
2022/10/30 02:40:16;;;;;;;11.38;6.65;;;14.30;84.10;;;;;;5054767;28;20021;-52
2022/10/30 02:42:42;;;;;;;20.35;8.82;;;14.30;84.20;;;;;;5054736;28;20087;-52
2022/10/30 02:45:08;;;;;;;19.48;6.22;;;14.30;84.40;;;;;;5055047;28;20036;-50
2022/10/30 02:47:34;;;;;;;18.05;6.63;;;14.30;84.60;;;;;;5054842;28;20053;-52
2022/10/30 02:49:59;;;;;;;10.73;5.53;;;14.30;84.70;;;;;;5054765;28;20079;-53
2022/10/30 02:52:25;;;;;;;13.25;6.88;;;14.20;84.70;;;;;;5054713;28;20452;-52
2022/10/30 02:54:50;;;;;;;10.10;6.03;;;14.20;84.70;;;;;;5054583;28;20104;-52
2022/10/30 02:57:16;;;;;;;13.48;6.55;;;14.20;84.70;;;;;;5054800;28;20472;-52
2022/10/30 02:59:41;;;;;;;11.13;5.97;;;14.20;84.80;;;;;;5053167;28;20123;-52
2022/10/30 03:02:07;;;;;;;17.25;6.18;;;14.20;85.00;;;;;;5054092;28;20476;-50
2022/10/30 03:04:33;;;;;;;11.38;6.32;;;14.10;85.10;;;;;;5054001;28;20029;-49
2022/10/30 03:06:58;;;;;;;12.25;6.38;;;14.00;85.30;;;;;;5054395;28;20420;-49
2022/10/30 03:09:24;;;;;;;11.57;5.63;;;14.00;85.50;;;;;;5053397;28;20437;-49
2022/10/30 03:11:49;;;;;;;23.48;7.03;;;14.00;85.50;;;;;;5054312;28;20017;-52
2022/10/30 03:14:15;;;;;;;14.25;6.78;;;14.00;85.50;;;;;;5053727;28;20029;-50
2022/10/30 03:16:41;;;;;;;16.92;7.10;;;14.00;85.50;;;;;;5054038;28;20029;-48
2022/10/30 03:19:06;;;;;;;14.40;7.20;;;13.90;85.60;;;;;;5054114;28;20420;-51
2022/10/30 03:21:32;;;;;;;16.25;6.30;;;13.90;85.60;;;;;;5054000;28;20029;-50
2022/10/30 03:23:57;;;;;;;15.90;6.40;;;13.90;85.60;;;;;;5053620;28;20048;-49
2022/10/30 03:26:23;;;;;;;8.40;5.65;;;13.80;85.80;;;;;;5053401;28;20218;-49
2022/10/30 03:28:49;;;;;;;10.40;5.60;;;13.80;85.80;;;;;;5053693;28;20043;-49
2022/10/30 03:31:17;;;;;;;14.90;6.30;;;13.80;85.90;;;;;;5052417;28;20020;-49
2022/10/30 03:33:43;;;;;;;17.10;6.07;;;13.80;85.90;;;;;;5053660;28;20055;-49
2022/10/30 03:36:11;;;;;;;14.20;7.05;;;13.80;85.90;;;;;;5053881;28;20489;-49
2022/10/30 03:38:37;;;;;;;16.42;7.10;;;13.80;85.90;;;;;;5053522;28;20025;-48
2022/10/30 03:41:04;;;;;;;10.88;5.82;;;13.80;85.90;;;;;;5053413;28;20066;-48
2022/10/30 03:43:29;;;;;;;16.05;6.78;;;13.80;85.80;;;;;;5053399;28;20028;-49
2022/10/30 03:45:56;;;;;;;12.10;5.80;;;13.80;85.80;;;;;;5035311;28;20033;-48
2022/10/30 03:48:26;;;;;;;9.55;5.57;;;13.80;85.80;;;;;;5053571;28;20497;-50
2022/10/30 03:50:57;;;;;;;14.50;6.20;;;13.80;85.90;;;;;;5053269;28;20025;-48
2022/10/30 03:53:25;;;;;;;8.40;5.63;;;13.80;86.00;;;;;;5053315;28;20021;-48
2022/10/30 03:55:51;;;;;;;11.70;6.07;;;13.80;86.10;;;;;;5053191;28;20033;-53
2022/10/30 03:58:17;;;;;;;11.50;6.50;;;13.80;86.20;;;;;;5053180;28;20017;-49
2022/10/30 04:00:42;;;;;;;9.85;6.05;;;13.80;86.10;;;;;;5053730;28;20048;-48
2022/10/30 04:03:09;;;;;;;14.07;6.07;;;13.80;86.20;;;;;;5053331;28;20501;-49
2022/10/30 04:05:35;;;;;;;12.15;5.78;;;13.70;86.20;;;;;;5051776;28;20025;-49
2022/10/30 04:08:03;;;;;;;15.63;6.85;;;13.70;86.30;;;;;;5053167;28;20067;-51
2022/10/30 04:10:29;;;;;;;11.65;6.53;;;13.70;86.40;;;;;;5052939;28;20158;-49
2022/10/30 04:13:06;;;;;;;14.65;6.32;;;13.60;86.40;;;;;;5053118;28;20029;-52
2022/10/30 04:15:32;;;;;;;26.50;7.15;;;13.50;86.60;;;;;;5052949;28;20029;-49
2022/10/30 04:17:58;;;;;;;15.15;8.55;;;13.50;86.80;;;;;;5052864;28;20029;-48
2022/10/30 04:20:25;;;;;;;17.80;7.05;;;13.40;87.00;;;;;;5051334;28;20503;-49
2022/10/30 04:22:58;;;;;;;14.60;5.53;;;13.40;86.90;;;;;;5051625;28;20029;-50
2022/10/30 04:25:24;;;;;;;10.50;6.28;;;13.30;87.00;;;;;;5053004;28;20087;-50
2022/10/30 04:27:51;;;;;;;14.88;5.93;;;13.30;87.20;;;;;;5052683;28;20029;-49
2022/10/30 04:30:22;;;;;;;9.45;5.93;;;13.30;87.30;;;;;;5053776;28;20074;-47
2022/10/30 04:32:48;;;;;;;;;;;13.30;87.30;;;;;;5053471;28;20025;-50
2022/10/30 04:35:15;;;;;;;12.43;6.90;;;13.30;87.30;;;;;;5053197;28;19959;-48
2022/10/30 04:37:41;;;;;;;13.25;6.00;;;13.30;87.30;;;;;;5053040;28;20064;-50
2022/10/30 04:40:08;;;;;;;10.77;5.20;;;13.30;87.40;;;;;;5052569;28;20384;-47
2022/10/30 04:42:34;;;;;;;17.45;6.07;;;13.20;87.40;;;;;;5051403;28;20033;-47
2022/10/30 04:45:01;;;;;;;8.38;5.18;;;13.20;87.30;;;;;;5053008;28;20029;-47
2022/10/30 04:47:28;;;;;;;13.95;5.93;;;13.20;87.30;;;;;;5052887;28;20485;-50
2022/10/30 04:49:54;;;;;;;9.85;5.35;;;13.20;87.30;;;;;;5051448;28;20074;-48
2022/10/30 04:52:19;;;;;;;13.60;5.47;;;13.10;87.30;;;;;;5051326;28;20029;-47
2022/10/30 04:54:45;;;;;;;17.52;6.35;;;13.00;87.40;;;;;;5052596;28;20453;-49
2022/10/30 04:57:10;;;;;;;15.23;5.32;;;13.00;87.50;;;;;;5051328;28;20067;-49
2022/10/30 04:59:36;;;;;;;15.88;6.15;;;13.00;87.50;;;;;;5051268;28;20025;-49
2022/10/30 05:02:02;;;;;;;18.08;6.63;;;13.00;87.60;;;;;;5052934;28;20380;-48
2022/10/30 05:04:27;;;;;;;11.02;6.10;;;13.00;87.70;;;;;;5052519;28;20021;-48
2022/10/30 05:06:53;;;;;;;13.10;5.47;;;12.90;87.70;;;;;;5052825;28;20029;-48
2022/10/30 05:09:18;;;;;;;12.88;5.82;;;12.90;87.70;;;;;;5052453;28;20025;-51
2022/10/30 05:11:44;;;;;;;17.08;6.00;;;12.90;87.70;;;;;;5051174;28;20025;-52
2022/10/30 05:14:10;;;;;;;13.07;6.28;;;12.80;87.80;;;;;;5052764;28;20021;-51
2022/10/30 05:16:35;;;;;;;14.55;6.20;;;12.80;87.80;;;;;;5052396;28;20392;-50
2022/10/30 05:19:01;;;;;;;27.95;6.78;;;12.80;87.80;;;;;;5052478;28;20035;-49
2022/10/30 05:21:26;;;;;;;9.27;5.07;;;12.80;87.90;;;;;;5052424;28;20067;-48
2022/10/30 05:23:52;;;;;;;16.75;6.68;;;12.80;88.00;;;;;;5052287;28;20056;-48
2022/10/30 05:26:18;;;;;;;17.00;7.70;;;12.70;88.10;;;;;;5052166;28;20045;-49
2022/10/30 05:28:43;;;;;;;11.40;6.32;;;12.70;88.10;;;;;;5052887;28;20025;-51
2022/10/30 05:31:09;;;;;;;16.10;7.68;;;12.60;88.10;;;;;;5052383;28;20503;-49
2022/10/30 05:33:35;;;;;;;18.35;5.43;;;12.60;88.20;;;;;;5055549;28;20017;-49
2022/10/30 05:36:03;;;;;;;12.85;5.63;;;12.60;88.20;;;;;;5055878;28;20445;-49
2022/10/30 05:38:29;;;;;;;14.15;7.00;;;12.60;88.30;;;;;;5057811;28;20134;-48
2022/10/30 05:40:55;;;;;;;11.20;6.25;;;12.60;88.30;;;;;;5056135;28;20207;-51
2022/10/30 05:43:20;;;;;;;16.27;6.18;;;12.60;88.30;;;;;;5056004;28;20021;-50
2022/10/30 05:45:49;;;;;;;12.98;6.40;;;12.60;88.20;;;;;;5054626;28;20033;-48
2022/10/30 05:48:14;;;;;;;13.50;5.82;;;12.60;88.20;;;;;;5055886;28;20031;-52
2022/10/30 05:50:40;;;;;;;16.15;5.95;;;12.60;88.30;;;;;;5055807;28;20393;-51
2022/10/30 05:53:06;;;;;;;15.02;5.07;;;12.70;88.30;;;;;;5055943;28;20029;-52
2022/10/30 05:55:31;;;;;;;17.80;7.53;;;12.60;88.10;;;;;;5055632;28;20025;-51
2022/10/30 05:57:58;;;;;;;21.30;6.10;;;12.60;88.20;;;;;;5055538;28;20025;-49
2022/10/30 06:00:24;;;;;;;13.77;6.55;;;12.50;88.20;;;;;;5055602;28;20449;-49
2022/10/30 06:02:50;;;;;;;11.23;6.53;;;12.60;88.20;;;;;;5055536;28;20052;-49
2022/10/30 16:27:00;;;;;;;14.80;5.45;;;18.10;72.40;;;;;;5109249;27;1298640;-40
2022/10/30 16:29:26;;;;;;;18.13;5.85;;;18.00;73.00;;;;;;5131543;27;20093;-41
2022/10/30 16:31:52;;;;;;;15.77;5.25;;;18.10;72.90;;;;;;5131288;27;20032;-39
2022/10/30 16:34:33;;;;;;;17.65;5.28;;;18.20;72.60;;;;;;5131395;27;20061;-40
2022/10/30 16:37:01;;;;;;;19.77;4.82;;;18.50;71.00;;;;;;5131317;27;20027;-39
2022/10/30 16:39:27;;;;;;;9.95;5.38;;;18.60;70.30;;;;;;5122978;28;20027;-40
2022/10/30 16:41:57;;;;;;;24.05;5.80;;;18.40;70.70;;;;;;5111340;28;20483;-40
2022/10/30 16:44:28;;;;;;;17.20;5.63;;;18.30;71.30;;;;;;5110827;28;20032;-39
2022/10/30 16:46:57;;;;;;;14.82;7.25;;;18.20;72.00;;;;;;5110837;28;20084;-40
2022/10/30 16:49:26;;;;;;;23.02;9.07;;;18.00;72.90;;;;;;5110994;28;20081;-40
2022/10/30 16:51:59;;;;;;;12.02;6.63;;;17.80;73.80;;;;;;5109698;28;20016;-45
2022/10/30 16:54:33;;;;;;;13.20;6.57;;;17.60;74.50;;;;;;5110844;28;20039;-40
2022/10/30 16:57:01;;;;;;;14.57;6.50;;;17.40;75.00;;;;;;5109567;28;20035;-40
2022/10/30 16:59:37;;;;;;;15.65;6.32;;;17.40;75.60;;;;;;5110569;28;20020;-40
2022/10/30 17:02:13;;;;;;;10.45;5.40;;;17.50;75.20;;;;;;5110956;28;20016;-39
2022/10/30 17:04:42;;;;;;;11.35;5.15;;;17.70;74.10;;;;;;5109236;28;20020;-41
2022/10/30 17:07:24;;;;;;;13.37;6.07;;;17.80;73.50;;;;;;5109430;28;20031;-40
2022/10/30 17:09:52;;;;;;;16.05;6.80;;;17.90;72.60;;;;;;5111764;28;20094;-50
2022/10/30 17:12:23;;;;;;;12.40;6.10;;;17.90;72.40;;;;;;5110874;28;20115;-39
2022/10/30 17:14:52;;;;;;;14.20;7.07;;;17.90;72.80;;;;;;5110285;28;20049;-39
2022/10/30 17:17:29;;;;;;;15.75;7.18;;;17.90;72.40;;;;;;5110318;28;20031;-39
2022/10/30 17:19:57;;;;;;;19.85;6.03;;;17.90;72.50;;;;;;5109811;28;20020;-39
2022/10/30 17:22:24;;;;;;;17.88;5.30;;;17.80;73.20;;;;;;5110182;28;20036;-38
2022/10/30 17:24:50;;;;;;;13.30;5.78;;;17.60;73.80;;;;;;5109976;28;20034;-39
2022/10/30 17:27:44;;;;;;;13.57;5.75;;;17.50;74.10;;;;;;5110096;28;20032;-38
2022/10/30 17:30:33;;;;;;;13.13;6.68;;;17.50;74.50;;;;;;5106876;28;20032;-38
2022/10/30 17:33:19;;;;;;;16.90;8.13;;;17.50;74.50;;;;;;5109826;28;20074;-39
2022/10/30 17:35:45;;;;;;;17.70;7.28;;;17.30;75.30;;;;;;5109316;28;20412;-41
2022/10/30 17:38:10;;;;;;;16.65;8.70;;;17.20;75.50;;;;;;5095750;28;20107;-39
2022/10/30 17:40:36;;;;;;;15.82;6.60;;;17.20;76.10;;;;;;5095853;28;20032;-38
2022/10/30 17:43:01;;;;;;;16.98;6.85;;;17.20;75.70;;;;;;5095785;28;20032;-39
2022/10/30 17:45:27;;;;;;;14.32;5.72;;;17.20;75.40;;;;;;5095927;28;20479;-39
2022/10/30 17:47:53;;;;;;;14.55;5.70;;;17.20;75.70;;;;;;5096975;28;20065;-42
2022/10/30 17:50:18;;;;;;;15.98;6.18;;;17.30;75.10;;;;;;5095550;28;20020;-38
2022/10/30 17:52:44;;;;;;;12.10;6.70;;;17.40;74.80;;;;;;5095642;28;20059;-41
2022/10/30 17:55:25;;;;;;;11.88;5.72;;;17.50;74.60;;;;;;5095722;28;20024;-40
2022/10/30 17:57:51;;;;;;;17.60;6.60;;;17.40;74.50;;;;;;5095902;28;20028;-40
2022/10/30 18:00:17;;;;;;;27.23;9.05;;;17.50;74.30;;;;;;5095846;28;20062;-39
2022/10/30 18:02:43;;;;;;;13.82;6.57;;;17.50;74.20;;;;;;5095489;28;20016;-39
2022/10/30 18:05:21;;;;;;;18.73;7.55;;;17.50;74.10;;;;;;5095516;28;20077;-39
2022/10/30 18:07:46;;;;;;;18.20;6.35;;;17.50;74.10;;;;;;5096078;28;20016;-39
2022/10/30 18:10:12;;;;;;;21.45;8.05;;;17.60;73.50;;;;;;5095604;28;20034;-39
2022/10/30 18:12:38;;;;;;;14.07;5.80;;;17.70;73.00;;;;;;5095265;28;20081;-39
2022/10/30 18:15:30;;;;;;;13.18;6.68;;;17.60;72.90;;;;;;5095426;28;20032;-41
2022/10/30 18:17:56;;;;;;;14.70;5.78;;;17.60;72.90;;;;;;5089265;28;20499;-40
2022/10/30 18:20:22;;;;;;;18.15;5.85;;;17.70;72.70;;;;;;5095278;28;20039;-39
2022/10/30 18:22:48;;;;;;;13.73;6.63;;;17.70;72.60;;;;;;5095299;28;20068;-39
2022/10/30 18:25:19;;;;;;;24.92;7.15;;;17.60;73.10;;;;;;5094625;28;20512;-39
2022/10/30 18:27:44;;;;;;;14.02;6.07;;;17.50;73.50;;;;;;5095547;28;20107;-39
2022/10/30 18:30:14;;;;;;;14.45;6.20;;;17.50;73.90;;;;;;5094910;28;20044;-39
2022/10/30 18:32:41;;;;;;;18.27;6.68;;;17.40;74.10;;;;;;5095045;28;20068;-39
2022/10/30 18:35:31;;;;;;;15.20;7.10;;;17.30;74.70;;;;;;5095052;28;20502;-39
2022/10/30 18:37:57;;;;;;;11.82;6.85;;;17.10;74.80;;;;;;5095053;28;20028;-38
2022/10/30 18:40:23;;;;;;;12.15;6.50;;;16.80;75.90;;;;;;5094422;28;20032;-39
2022/10/30 18:42:48;;;;;;;16.15;9.70;;;16.80;76.20;;;;;;5094489;28;20110;-39
2022/10/30 18:45:25;;;;;;;21.88;9.63;;;16.60;76.80;;;;;;5094929;28;20463;-40
2022/10/30 18:47:52;;;;;;;19.55;8.85;;;16.50;77.40;;;;;;5094206;28;20422;-39
2022/10/30 18:50:19;;;;;;;19.98;7.28;;;16.40;78.20;;;;;;5092917;28;20078;-40
2022/10/30 18:52:45;;;;;;;17.13;7.28;;;16.50;78.40;;;;;;5094124;28;20031;-40
2022/10/30 18:55:30;;;;;;;21.40;6.82;;;16.50;77.50;;;;;;5094401;28;20376;-39
2022/10/30 18:57:56;;;;;;;11.55;6.97;;;16.40;77.80;;;;;;5094292;28;20035;-38
2022/10/30 19:00:23;;;;;;;20.95;7.95;;;16.40;78.60;;;;;;5093823;28;20040;-38
2022/10/30 19:02:52;;;;;;;18.13;8.23;;;16.40;78.80;;;;;;5094094;28;20099;-38
2022/10/30 19:05:21;;;;;;;23.27;10.10;;;16.50;78.20;;;;;;5094252;28;20452;-41
2022/10/30 19:07:46;;;;;;;14.07;8.32;;;16.50;78.00;;;;;;5094069;28;20081;-39
2022/10/30 19:10:12;;;;;;;16.60;7.18;;;16.60;77.70;;;;;;5093723;28;20070;-38
2022/10/30 19:12:38;;;;;;;14.45;6.65;;;16.70;77.60;;;;;;5093833;28;20103;-40
2022/10/30 19:15:33;;;;;;;25.90;7.32;;;16.80;77.50;;;;;;5092366;28;20026;-40
2022/10/30 19:18:00;;;;;;;12.18;6.57;;;16.80;77.20;;;;;;5091958;28;20032;-39
2022/10/30 19:20:26;;;;;;;19.30;8.45;;;16.80;77.20;;;;;;5094110;28;20093;-44
2022/10/30 19:22:52;;;;;;;17.10;8.63;;;16.80;77.40;;;;;;5093762;28;20069;-40
2022/10/30 19:25:22;;;;;;;14.88;8.25;;;16.80;77.40;;;;;;5093741;28;20055;-40
2022/10/30 19:27:48;;;;;;;16.83;7.00;;;16.80;77.60;;;;;;5093776;28;20119;-38
2022/10/30 19:30:16;;;;;;;14.05;6.90;;;16.70;77.80;;;;;;5093666;28;20028;-39
2022/10/30 19:32:42;;;;;;;23.60;8.23;;;16.60;78.20;;;;;;5093919;28;20403;-39
2022/10/30 19:35:09;;;;;;;16.05;7.40;;;16.60;78.60;;;;;;5093663;28;20200;-39
2022/10/30 19:37:35;;;;;;;20.60;7.93;;;16.60;78.70;;;;;;5093391;28;20039;-39
2022/10/30 19:40:22;;;;;;;14.43;7.25;;;16.50;78.90;;;;;;5093331;28;20032;-41
2022/10/30 19:42:48;;;;;;;23.30;7.72;;;16.60;78.90;;;;;;5093324;28;20027;-39
2022/10/30 19:45:15;;;;;;;12.55;7.20;;;16.70;79.00;;;;;;5091899;28;20024;-39
2022/10/30 19:47:44;;;;;;;14.00;7.20;;;16.60;79.10;;;;;;5093722;28;20324;-39
2022/10/30 19:50:27;;;;;;;20.73;8.18;;;16.50;79.40;;;;;;5093272;28;20021;-39
2022/10/30 19:52:57;;;;;;;20.10;8.10;;;16.50;79.70;;;;;;5093133;28;20020;-39
2022/10/30 19:55:24;;;;;;;14.68;8.18;;;16.60;79.70;;;;;;5093069;28;20031;-39
2022/10/30 19:57:50;;;;;;;22.45;8.13;;;16.50;79.80;;;;;;5093319;28;20028;-40
2022/10/30 20:00:23;;;;;;;16.15;8.23;;;16.50;79.90;;;;;;5093554;28;20174;-39
2022/10/30 20:02:51;;;;;;;15.10;8.77;;;16.40;80.10;;;;;;5093743;28;20047;-39
2022/10/30 20:05:17;;;;;;;18.33;7.68;;;16.30;80.40;;;;;;5093348;28;20369;-39
2022/10/30 20:07:43;;;;;;;17.95;9.00;;;16.30;80.90;;;;;;5093549;28;20019;-39
2022/10/30 20:10:19;;;;;;;17.75;8.50;;;16.30;81.10;;;;;;5093365;28;20506;-39
2022/10/30 20:12:46;;;;;;;17.52;9.00;;;16.30;81.10;;;;;;5093333;28;20103;-40
2022/10/30 20:15:17;;;;;;;17.95;9.35;;;16.30;81.20;;;;;;5093062;28;20081;-39
2022/10/30 20:17:44;;;;;;;14.60;8.55;;;16.20;81.20;;;;;;5093145;28;20412;-39
2022/10/30 20:20:14;;;;;;;16.67;9.88;;;16.10;81.50;;;;;;5093290;28;20480;-39
2022/10/30 20:22:40;;;;;;;;;;;16.10;82.00;;;;;;5093764;28;20082;-38
2022/10/30 20:25:06;;;;;;;22.02;10.63;;;16.10;81.90;;;;;;5092638;28;19920;-38
2022/10/30 20:27:32;;;;;;;31.15;13.00;;;15.90;82.10;;;;;;5093564;28;20028;-39
2022/10/30 20:29:57;;;;;;;19.58;10.00;;;15.80;82.50;;;;;;5093408;28;20028;-38
2022/10/30 20:32:23;;;;;;;24.27;9.35;;;15.80;82.90;;;;;;5092701;28;20114;-39
2022/10/30 20:34:49;;;;;;;20.95;8.27;;;15.70;83.20;;;;;;5092558;28;20480;-39
2022/10/30 20:37:14;;;;;;;12.75;8.07;;;15.70;83.50;;;;;;5093118;28;20099;-38
2022/10/30 20:39:40;;;;;;;15.38;8.38;;;15.50;83.70;;;;;;5091572;28;20028;-39
2022/10/30 20:42:07;;;;;;;21.70;10.25;;;15.40;84.10;;;;;;5093035;28;20028;-39
2022/10/30 20:44:33;;;;;;;20.75;10.25;;;15.40;84.30;;;;;;5092818;28;20021;-39
2022/10/30 20:46:58;;;;;;;19.90;8.25;;;15.30;84.50;;;;;;5092945;28;20032;-39
2022/10/30 20:49:24;;;;;;;19.33;7.80;;;15.30;84.70;;;;;;5091393;28;20016;-38
2022/10/30 20:51:49;;;;;;;17.08;8.55;;;15.30;84.90;;;;;;5092465;28;20023;-39
2022/10/30 20:54:16;;;;;;;26.83;11.20;;;15.20;85.20;;;;;;5092660;28;20021;-39
2022/10/30 20:56:41;;;;;;;21.08;8.88;;;15.20;85.30;;;;;;5092628;28;20423;-39
2022/10/30 20:59:07;;;;;;;24.25;9.63;;;15.30;85.60;;;;;;5091179;28;20082;-39
2022/10/30 21:01:33;;;;;;;23.15;9.18;;;15.30;85.60;;;;;;5092536;28;20547;-39
2022/10/30 21:03:58;;;;;;;26.90;10.52;;;15.50;85.10;;;;;;5092387;28;20054;-40
2022/10/30 21:06:24;;;;;;;24.02;11.20;;;15.50;84.70;;;;;;5092450;28;20075;-40
2022/10/30 21:08:50;;;;;;;21.55;10.52;;;15.40;85.10;;;;;;5092333;28;20123;-39
2022/10/30 21:11:15;;;;;;;28.75;11.15;;;15.40;85.10;;;;;;5092315;28;20020;-39
2022/10/30 21:13:41;;;;;;;18.80;10.05;;;15.50;85.30;;;;;;5096265;28;20073;-39
2022/10/30 21:16:08;;;;;;;22.67;10.63;;;15.50;85.00;;;;;;5096435;28;20475;-39
2022/10/30 21:18:34;;;;;;;24.98;12.27;;;15.50;84.80;;;;;;5096133;28;20511;-39
2022/10/30 21:21:04;;;;;;;29.42;10.27;;;15.60;84.90;;;;;;5096201;28;20052;-42
2022/10/30 21:23:29;;;;;;;22.83;13.05;;;15.60;84.90;;;;;;5096594;28;20028;-39
2022/10/30 21:26:00;;;;;;;19.05;10.55;;;15.60;84.80;;;;;;5094393;28;20050;-39
2022/10/30 21:28:25;;;;;;;18.00;9.27;;;15.50;84.90;;;;;;5096182;28;20491;-39
2022/10/30 21:30:51;;;;;;;21.60;9.98;;;15.50;85.20;;;;;;5096040;28;20051;-40
2022/10/30 21:33:16;;;;;;;41.20;10.70;;;15.60;85.00;;;;;;5095809;28;20020;-39
2022/10/30 21:35:42;;;;;;;25.85;11.48;;;15.60;85.10;;;;;;5096359;28;20426;-39
2022/10/30 21:38:08;;;;;;;31.65;11.70;;;15.50;85.10;;;;;;5095830;28;20037;-39
2022/10/30 21:40:33;;;;;;;30.55;12.13;;;15.50;85.20;;;;;;5095853;28;20035;-39
2022/10/30 21:42:59;;;;;;;25.33;12.60;;;15.40;85.30;;;;;;5096412;28;20032;-39
2022/10/30 21:45:25;;;;;;;22.30;12.23;;;15.50;85.40;;;;;;5094844;28;20039;-39
2022/10/30 21:47:51;;;;;;;23.42;11.38;;;15.40;85.20;;;;;;5096413;28;20042;-39
2022/10/30 21:50:17;;;;;;;20.25;10.35;;;15.30;85.50;;;;;;5096053;28;20048;-40
2022/10/30 21:52:42;;;;;;;19.95;10.15;;;15.30;86.00;;;;;;5094296;28;20047;-39
2022/10/30 21:55:08;;;;;;;18.98;11.30;;;15.30;85.80;;;;;;5096262;28;20056;-38
2022/10/30 21:57:34;;;;;;;26.50;12.05;;;15.30;86.00;;;;;;5095422;28;20039;-39
2022/10/30 22:00:00;;;;;;;22.65;12.57;;;15.20;86.20;;;;;;5096046;28;20020;-39
2022/10/30 22:02:26;;;;;;;20.80;10.88;;;15.20;86.40;;;;;;5094087;28;20069;-39
2022/10/30 22:04:52;;;;;;;21.38;11.38;;;15.10;86.60;;;;;;5095421;28;20183;-39
2022/10/30 22:07:18;;;;;;;19.60;10.10;;;15.10;86.80;;;;;;5095128;28;20093;-39
2022/10/30 22:09:44;;;;;;;17.25;10.27;;;15.10;86.80;;;;;;5095163;28;20379;-42
2022/10/30 22:12:09;;;;;;;21.63;10.90;;;15.20;86.90;;;;;;5095519;28;20035;-39
2022/10/30 22:14:35;;;;;;;24.92;10.73;;;15.10;86.90;;;;;;5095149;28;20517;-40
2022/10/30 22:17:01;;;;;;;19.73;10.80;;;15.20;86.80;;;;;;5095056;28;20047;-38
2022/10/30 22:19:26;;;;;;;21.52;10.50;;;15.30;86.60;;;;;;5095247;28;20024;-39
2022/10/30 22:21:52;;;;;;;21.90;11.77;;;15.20;86.50;;;;;;5094946;28;20024;-38
2022/10/30 22:24:17;;;;;;;25.73;10.18;;;15.20;86.50;;;;;;5095074;28;20510;-38
2022/10/30 22:26:43;;;;;;;23.15;12.40;;;15.20;86.60;;;;;;5094950;28;20135;-39
2022/10/30 22:29:10;;;;;;;23.55;11.68;;;15.30;86.90;;;;;;5095128;28;20371;-38
2022/10/30 22:31:36;;;;;;;24.98;11.68;;;15.30;86.30;;;;;;5076831;28;20027;-38
2022/10/30 22:34:01;;;;;;;22.60;11.45;;;15.20;86.50;;;;;;5094746;28;20068;-38
2022/10/30 22:36:32;;;;;;;33.30;11.90;;;15.20;86.60;;;;;;5094764;28;20042;-39
2022/10/30 22:38:58;;;;;;;;;;;15.20;86.80;;;;;;5095366;28;20507;-39
2022/10/30 22:41:25;;;;;;;21.83;11.48;;;15.30;86.50;;;;;;5094564;28;19910;-38
2022/10/30 22:43:55;;;;;;;28.38;11.88;;;15.30;86.10;;;;;;5094662;28;20020;-39
2022/10/30 22:46:22;;;;;;;;;;;15.30;86.20;;;;;;5095311;28;20047;-39
2022/10/30 22:48:48;;;;;;;22.08;11.90;;;15.30;85.90;;;;;;5094795;28;19908;-40
2022/10/30 22:51:16;;;;;;;24.42;11.07;;;15.40;85.80;;;;;;5077127;28;20361;-39
2022/10/30 22:53:42;;;;;;;15.75;10.85;;;15.50;85.60;;;;;;5093428;28;20023;-40
2022/10/30 22:56:23;;;;;;;20.50;10.60;;;15.50;85.40;;;;;;5093354;28;20107;-39
2022/10/30 22:58:49;;;;;;;;;;;15.50;85.40;;;;;;5094858;28;20483;-38
2022/10/30 23:01:23;;;;;;;17.92;9.75;;;15.40;85.40;;;;;;5093123;28;19955;-38
2022/10/30 23:03:50;;;;;;;27.20;12.38;;;15.50;85.60;;;;;;5094568;28;20020;-38
2022/10/30 23:06:17;;;;;;;29.42;11.38;;;15.50;86.10;;;;;;5094141;28;20488;-38
2022/10/30 23:08:43;;;;;;;18.85;12.27;;;15.60;85.40;;;;;;5094262;28;20030;-39